sensor_id;sensor_type;location;lat;lon;timestamp;pressure;altitude;pressure_sealevel;temperature;humidity
35553;BME280;21656;46.054;13.614;2023-03-17T00:00:33;101451.03;;;3.19;100.00
35553;BME280;21656;46.054;13.614;2023-03-17T00:02:59;101437.88;;;3.15;100.00
35553;BME280;21656;46.054;13.614;2023-03-17T00:05:25;101442.84;;;3.24;100.00
35553;BME280;21656;46.054;13.614;2023-03-17T00:07:52;101441.03;;;2.99;100.00
35553;BME280;21656;46.054;13.614;2023-03-17T00:10:21;101447.69;;;2.86;100.00
35553;BME280;21656;46.054;13.614;2023-03-17T00:12:51;101442.41;;;2.85;100.00
35553;BME280;21656;46.054;13.614;2023-03-17T00:15:24;101441.44;;;2.87;100.00
35553;BME280;21656;46.054;13.614;2023-03-17T00:17:50;101441.81;;;2.75;100.00
35553;BME280;21656;46.054;13.614;2023-03-17T00:20:26;101447.56;;;2.89;100.00
35553;BME280;21656;46.054;13.614;2023-03-17T00:22:52;101453.06;;;2.83;100.00
35553;BME280;21656;46.054;13.614;2023-03-17T00:25:20;101449.03;;;2.71;100.00
35553;BME280;21656;46.054;13.614;2023-03-17T00:27:46;101456.47;;;2.60;100.00
35553;BME280;21656;46.054;13.614;2023-03-17T00:30:12;101452.66;;;2.69;100.00
35553;BME280;21656;46.054;13.614;2023-03-17T00:32:37;101448.63;;;2.83;100.00
35553;BME280;21656;46.054;13.614;2023-03-17T06:58:52;101404.00;;;5.05;81.62
35553;BME280;21656;46.054;13.614;2023-03-17T07:01:17;101406.34;;;5.13;76.38
35553;BME280;21656;46.054;13.614;2023-03-17T07:03:43;101405.50;;;5.12;76.57
35553;BME280;21656;46.054;13.614;2023-03-17T07:06:09;101398.84;;;5.22;74.74
35553;BME280;21656;46.054;13.614;2023-03-17T07:08:34;101400.31;;;5.30;75.51
35553;BME280;21656;46.054;13.614;2023-03-17T07:11:00;101406.31;;;5.35;76.06
35553;BME280;21656;46.054;13.614;2023-03-17T07:13:25;101404.47;;;5.37;75.65
35553;BME280;21656;46.054;13.614;2023-03-17T07:15:51;101405.78;;;5.47;74.55
35553;BME280;21656;46.054;13.614;2023-03-17T07:18:17;101397.28;;;5.58;72.54
35553;BME280;21656;46.054;13.614;2023-03-17T07:20:43;101402.50;;;5.61;70.36
35553;BME280;21656;46.054;13.614;2023-03-17T07:23:11;101404.47;;;5.76;69.96
35553;BME280;21656;46.054;13.614;2023-03-17T07:25:38;101400.56;;;5.85;69.71
35553;BME280;21656;46.054;13.614;2023-03-17T07:28:07;101390.09;;;5.99;69.75
35553;BME280;21656;46.054;13.614;2023-03-17T07:30:33;101391.91;;;5.99;68.10
35553;BME280;21656;46.054;13.614;2023-03-17T07:32:58;101387.38;;;6.20;67.50
35553;BME280;21656;46.054;13.614;2023-03-17T07:35:24;101380.91;;;6.43;64.17
35553;BME280;21656;46.054;13.614;2023-03-17T07:37:49;101371.59;;;6.51;63.08
35553;BME280;21656;46.054;13.614;2023-03-17T07:40:14;101377.59;;;6.57;62.39
35553;BME280;21656;46.054;13.614;2023-03-17T07:42:42;101377.59;;;6.57;61.23
35553;BME280;21656;46.054;13.614;2023-03-17T07:45:07;101380.72;;;6.84;62.61
35553;BME280;21656;46.054;13.614;2023-03-17T07:47:33;101374.44;;;7.02;61.55
35553;BME280;21656;46.054;13.614;2023-03-17T07:49:59;101378.22;;;7.15;60.71
35553;BME280;21656;46.054;13.614;2023-03-17T07:52:24;101368.19;;;7.36;58.39
35553;BME280;21656;46.054;13.614;2023-03-17T07:54:49;101369.78;;;7.58;57.78
35553;BME280;21656;46.054;13.614;2023-03-17T07:57:16;101373.91;;;7.81;57.35
35553;BME280;21656;46.054;13.614;2023-03-17T07:59:41;101358.69;;;7.97;55.08
35553;BME280;21656;46.054;13.614;2023-03-17T08:02:08;101356.72;;;8.01;53.04
35553;BME280;21656;46.054;13.614;2023-03-17T08:04:35;101359.25;;;8.20;54.32
35553;BME280;21656;46.054;13.614;2023-03-17T08:07:00;101353.38;;;8.45;53.78
35553;BME280;21656;46.054;13.614;2023-03-17T08:09:25;101356.16;;;8.59;52.78
35553;BME280;21656;46.054;13.614;2023-03-17T08:11:51;101355.19;;;8.76;51.50
35553;BME280;21656;46.054;13.614;2023-03-17T08:14:16;101354.69;;;8.70;49.96
35553;BME280;21656;46.054;13.614;2023-03-17T08:16:41;101341.31;;;8.84;50.98
35553;BME280;21656;46.054;13.614;2023-03-17T08:19:07;101344.69;;;8.87;48.96
35553;BME280;21656;46.054;13.614;2023-03-17T08:21:32;101347.09;;;8.92;49.20
35553;BME280;21656;46.054;13.614;2023-03-17T08:23:58;101341.13;;;9.17;49.94
35553;BME280;21656;46.054;13.614;2023-03-17T08:26:23;101350.56;;;9.39;47.92
35553;BME280;21656;46.054;13.614;2023-03-17T08:28:50;101337.72;;;9.58;47.85
35553;BME280;21656;46.054;13.614;2023-03-17T08:31:17;101331.31;;;9.75;47.93
35553;BME280;21656;46.054;13.614;2023-03-17T08:33:46;101328.13;;;9.83;44.91
35553;BME280;21656;46.054;13.614;2023-03-17T08:36:13;101326.38;;;9.82;44.09
35553;BME280;21656;46.054;13.614;2023-03-17T08:38:38;101324.84;;;9.92;44.61
35553;BME280;21656;46.054;13.614;2023-03-17T08:41:05;101328.00;;;10.13;44.93
35553;BME280;21656;46.054;13.614;2023-03-17T08:43:32;101322.88;;;10.23;43.77
35553;BME280;21656;46.054;13.614;2023-03-17T08:46:02;101321.72;;;10.27;44.32
35553;BME280;21656;46.054;13.614;2023-03-17T08:48:28;101309.13;;;10.27;43.17
35553;BME280;21656;46.054;13.614;2023-03-17T08:50:54;101316.94;;;10.17;44.43
35553;BME280;21656;46.054;13.614;2023-03-17T08:53:19;101305.09;;;10.20;44.35
35553;BME280;21656;46.054;13.614;2023-03-17T08:55:44;101306.00;;;10.48;44.46
35553;BME280;21656;46.054;13.614;2023-03-17T08:58:10;101304.75;;;10.53;43.13
35553;BME280;21656;46.054;13.614;2023-03-17T09:00:35;101293.09;;;10.80;42.89
35553;BME280;21656;46.054;13.614;2023-03-17T09:03:00;101299.28;;;10.95;43.37
35553;BME280;21656;46.054;13.614;2023-03-17T09:05:25;101295.22;;;11.15;42.22
35553;BME280;21656;46.054;13.614;2023-03-17T09:07:51;101290.91;;;11.38;42.55
35553;BME280;21656;46.054;13.614;2023-03-17T09:10:16;101281.72;;;11.53;41.15
35553;BME280;21656;46.054;13.614;2023-03-17T09:12:46;101283.34;;;11.68;41.39
35553;BME280;21656;46.054;13.614;2023-03-17T09:15:12;101273.69;;;11.77;40.26
35553;BME280;21656;46.054;13.614;2023-03-17T09:17:37;101273.38;;;11.95;41.00
35553;BME280;21656;46.054;13.614;2023-03-17T09:20:03;101270.06;;;12.15;40.03
35553;BME280;21656;46.054;13.614;2023-03-17T09:22:31;101268.31;;;12.27;39.66
35553;BME280;21656;46.054;13.614;2023-03-17T09:24:56;101268.59;;;12.35;38.01
35553;BME280;21656;46.054;13.614;2023-03-17T09:27:22;101269.06;;;12.29;38.05
35553;BME280;21656;46.054;13.614;2023-03-17T09:29:47;101264.94;;;12.36;38.91
35553;BME280;21656;46.054;13.614;2023-03-17T09:32:12;101265.03;;;12.58;38.47
35553;BME280;21656;46.054;13.614;2023-03-17T09:34:38;101263.53;;;12.54;36.83
35553;BME280;21656;46.054;13.614;2023-03-17T09:37:03;101267.50;;;12.62;36.22
35553;BME280;21656;46.054;13.614;2023-03-17T09:39:29;101250.13;;;12.53;36.90
35553;BME280;21656;46.054;13.614;2023-03-17T09:49:19;101253.25;;;12.95;35.37
35553;BME280;21656;46.054;13.614;2023-03-17T09:51:46;101252.66;;;13.02;34.78
35553;BME280;21656;46.054;13.614;2023-03-17T09:54:26;101246.19;;;12.81;32.85
35553;BME280;21656;46.054;13.614;2023-03-17T09:57:02;101246.03;;;13.07;33.11
35553;BME280;21656;46.054;13.614;2023-03-17T09:59:34;101233.06;;;13.46;34.54
35553;BME280;21656;46.054;13.614;2023-03-17T10:02:01;101236.63;;;13.69;35.92
35553;BME280;21656;46.054;13.614;2023-03-17T10:04:26;101228.38;;;13.93;36.73
35553;BME280;21656;46.054;13.614;2023-03-17T10:06:54;101230.34;;;13.79;35.41
35553;BME280;21656;46.054;13.614;2023-03-17T10:09:30;101227.38;;;13.94;36.37
35553;BME280;21656;46.054;13.614;2023-03-17T10:17:25;101228.44;;;14.57;34.91
35553;BME280;21656;46.054;13.614;2023-03-17T10:19:59;101226.13;;;14.73;35.18
35553;BME280;21656;46.054;13.614;2023-03-17T10:22:35;101226.63;;;14.46;34.32
35553;BME280;21656;46.054;13.614;2023-03-17T10:25:04;101213.56;;;14.93;34.04
35553;BME280;21656;46.054;13.614;2023-03-17T10:27:33;101213.59;;;15.14;33.73
35553;BME280;21656;46.054;13.614;2023-03-17T10:30:00;101213.88;;;15.52;33.74
35553;BME280;21656;46.054;13.614;2023-03-17T10:32:25;101207.06;;;15.88;33.59
35553;BME280;21656;46.054;13.614;2023-03-17T10:34:51;101197.50;;;16.03;33.06
35553;BME280;21656;46.054;13.614;2023-03-17T10:37:18;101198.34;;;15.94;33.65
35553;BME280;21656;46.054;13.614;2023-03-17T10:39:47;101197.78;;;15.91;33.74
35553;BME280;21656;46.054;13.614;2023-03-17T10:42:26;101193.59;;;15.87;33.77
35553;BME280;21656;46.054;13.614;2023-03-17T10:45:00;101194.34;;;16.18;33.82
35553;BME280;21656;46.054;13.614;2023-03-17T10:47:32;101193.38;;;16.09;33.66
35553;BME280;21656;46.054;13.614;2023-03-17T10:50:01;101184.22;;;16.20;34.57
35553;BME280;21656;46.054;13.614;2023-03-17T10:52:28;101193.78;;;16.04;34.53
35553;BME280;21656;46.054;13.614;2023-03-17T10:54:54;101195.25;;;16.47;35.99
35553;BME280;21656;46.054;13.614;2023-03-17T10:57:19;101188.50;;;16.90;35.11
35553;BME280;21656;46.054;13.614;2023-03-17T10:59:52;101189.31;;;17.10;33.85
35553;BME280;21656;46.054;13.614;2023-03-17T11:04:42;101188.78;;;16.19;33.16
35553;BME280;21656;46.054;13.614;2023-03-17T11:07:21;101188.38;;;16.34;34.07
35553;BME280;21656;46.054;13.614;2023-03-17T11:09:51;101187.78;;;16.88;34.23
35553;BME280;21656;46.054;13.614;2023-03-17T11:14:49;101181.88;;;17.13;33.46
35553;BME280;21656;46.054;13.614;2023-03-17T11:17:20;101175.13;;;17.17;33.94
35553;BME280;21656;46.054;13.614;2023-03-17T11:22:16;101185.66;;;16.63;33.55
35553;BME280;21656;46.054;13.614;2023-03-17T11:24:53;101175.78;;;16.52;34.69
35553;BME280;21656;46.054;13.614;2023-03-17T11:27:29;101171.63;;;16.09;35.22
35553;BME280;21656;46.054;13.614;2023-03-17T11:30:08;101174.31;;;15.80;35.95
35553;BME280;21656;46.054;13.614;2023-03-17T11:32:40;101177.03;;;15.90;36.64
35553;BME280;21656;46.054;13.614;2023-03-17T11:35:14;101162.34;;;16.41;36.48
35553;BME280;21656;46.054;13.614;2023-03-17T11:46:19;101138.47;;;17.11;34.44
35553;BME280;21656;46.054;13.614;2023-03-17T11:56:22;101137.22;;;18.78;34.18
35553;BME280;21656;46.054;13.614;2023-03-17T11:58:58;101122.34;;;18.98;33.30
35553;BME280;21656;46.054;13.614;2023-03-17T12:01:27;101121.06;;;19.19;33.07
35553;BME280;21656;46.054;13.614;2023-03-17T12:06:31;101115.50;;;18.94;32.10
35553;BME280;21656;46.054;13.614;2023-03-17T12:08:59;101122.13;;;19.26;31.81
35553;BME280;21656;46.054;13.614;2023-03-17T12:11:28;101113.16;;;19.42;33.38
35553;BME280;21656;46.054;13.614;2023-03-17T12:14:13;101107.25;;;18.86;31.72
35553;BME280;21656;46.054;13.614;2023-03-17T12:16:47;101107.25;;;18.86;32.80
35553;BME280;21656;46.054;13.614;2023-03-17T12:19:24;101099.47;;;18.73;32.69
35553;BME280;21656;46.054;13.614;2023-03-17T12:21:54;101106.16;;;18.35;33.16
35553;BME280;21656;46.054;13.614;2023-03-17T12:24:25;101097.47;;;18.31;33.93
35553;BME280;21656;46.054;13.614;2023-03-17T12:32:06;101093.38;;;19.40;33.33
35553;BME280;21656;46.054;13.614;2023-03-17T12:34:57;101090.28;;;19.94;33.76
35553;BME280;21656;46.054;13.614;2023-03-17T12:37:21;101082.34;;;19.66;31.97
35553;BME280;21656;46.054;13.614;2023-03-17T12:40:02;101086.91;;;19.49;32.80
35553;BME280;21656;46.054;13.614;2023-03-17T12:45:06;101081.41;;;20.00;33.00
35553;BME280;21656;46.054;13.614;2023-03-17T12:55:14;101068.09;;;19.88;32.45
35553;BME280;21656;46.054;13.614;2023-03-17T12:57:44;101071.06;;;19.10;32.20
35553;BME280;21656;46.054;13.614;2023-03-17T13:00:23;101069.00;;;18.78;33.91
35553;BME280;21656;46.054;13.614;2023-03-17T13:03:05;101065.78;;;18.56;34.07
35553;BME280;21656;46.054;13.614;2023-03-17T13:05:32;101057.28;;;18.59;35.13
35553;BME280;21656;46.054;13.614;2023-03-17T13:08:01;101056.56;;;19.10;34.95
35553;BME280;21656;46.054;13.614;2023-03-17T13:10:41;101054.59;;;19.28;34.29
35553;BME280;21656;46.054;13.614;2023-03-17T13:20:37;101049.59;;;19.74;34.23
35553;BME280;21656;46.054;13.614;2023-03-17T13:43:20;101032.63;;;17.99;36.34
35553;BME280;21656;46.054;13.614;2023-03-17T13:45:53;101028.25;;;18.06;35.66
35553;BME280;21656;46.054;13.614;2023-03-17T13:50:58;101029.34;;;17.77;35.90
35553;BME280;21656;46.054;13.614;2023-03-17T13:53:26;101018.75;;;17.74;36.13
35553;BME280;21656;46.054;13.614;2023-03-17T13:56:53;101020.78;;;17.72;36.67
35553;BME280;21656;46.054;13.614;2023-03-17T13:58:49;101021.53;;;17.47;36.34
35553;BME280;21656;46.054;13.614;2023-03-17T14:01:14;101013.56;;;17.18;36.95
35553;BME280;21656;46.054;13.614;2023-03-17T14:03:47;101013.81;;;16.97;37.58
35553;BME280;21656;46.054;13.614;2023-03-17T14:06:13;101014.91;;;16.76;38.01
35553;BME280;21656;46.054;13.614;2023-03-17T14:08:59;101007.75;;;16.65;38.83
35553;BME280;21656;46.054;13.614;2023-03-17T14:11:27;101002.03;;;16.21;38.63
35553;BME280;21656;46.054;13.614;2023-03-17T14:16:43;101010.63;;;15.97;39.60
35553;BME280;21656;46.054;13.614;2023-03-17T14:19:15;101001.63;;;15.97;40.42
35553;BME280;21656;46.054;13.614;2023-03-17T14:21:42;101001.78;;;15.76;39.91
35553;BME280;21656;46.054;13.614;2023-03-17T14:24:18;100999.63;;;15.70;40.53
35553;BME280;21656;46.054;13.614;2023-03-17T14:26:43;100991.47;;;15.60;40.46
35553;BME280;21656;46.054;13.614;2023-03-17T14:29:09;100986.91;;;15.51;nan
35553;BME280;21656;46.054;13.614;2023-03-17T14:31:37;100980.59;;;15.41;41.30
35553;BME280;21656;46.054;13.614;2023-03-17T14:34:03;100986.88;;;15.31;40.77
35553;BME280;21656;46.054;13.614;2023-03-17T14:36:31;100991.00;;;15.26;41.12
35553;BME280;21656;46.054;13.614;2023-03-17T14:38:56;100974.84;;;15.24;41.78
35553;BME280;21656;46.054;13.614;2023-03-17T14:41:24;100978.28;;;15.26;41.72
35553;BME280;21656;46.054;13.614;2023-03-17T14:43:50;100975.00;;;15.23;42.17
35553;BME280;21656;46.054;13.614;2023-03-17T14:46:19;100970.22;;;14.86;42.10
35553;BME280;21656;46.054;13.614;2023-03-17T14:48:46;100966.88;;;14.72;42.47
35553;BME280;21656;46.054;13.614;2023-03-17T14:51:28;100967.28;;;14.68;42.59
35553;BME280;21656;46.054;13.614;2023-03-17T14:54:02;100963.44;;;14.70;43.19
35553;BME280;21656;46.054;13.614;2023-03-17T14:56:34;100953.75;;;14.68;42.86
35553;BME280;21656;46.054;13.614;2023-03-17T15:01:41;100952.56;;;14.61;42.78
35553;BME280;21656;46.054;13.614;2023-03-17T15:04:11;100951.47;;;14.42;43.01
35553;BME280;21656;46.054;13.614;2023-03-17T15:06:46;100952.06;;;14.46;44.07
35553;BME280;21656;46.054;13.614;2023-03-17T15:09:19;100947.50;;;14.16;43.63
35553;BME280;21656;46.054;13.614;2023-03-17T15:11:48;100942.78;;;14.18;44.48
35553;BME280;21656;46.054;13.614;2023-03-17T15:14:14;100937.63;;;14.15;43.84
35553;BME280;21656;46.054;13.614;2023-03-17T15:16:42;100934.75;;;14.06;43.79
35553;BME280;21656;46.054;13.614;2023-03-17T15:19:20;100932.63;;;14.10;45.26
35553;BME280;21656;46.054;13.614;2023-03-17T15:21:46;100931.03;;;14.07;45.05
35553;BME280;21656;46.054;13.614;2023-03-17T15:24:26;100933.97;;;14.16;45.14
35553;BME280;21656;46.054;13.614;2023-03-17T15:27:05;100929.34;;;14.06;45.31
35553;BME280;21656;46.054;13.614;2023-03-17T15:29:31;100926.22;;;14.11;45.82
35553;BME280;21656;46.054;13.614;2023-03-17T15:32:16;100924.72;;;14.18;46.60
35553;BME280;21656;46.054;13.614;2023-03-17T15:34:44;100916.25;;;14.12;46.19
35553;BME280;21656;46.054;13.614;2023-03-17T15:37:16;100918.97;;;14.12;47.56
35553;BME280;21656;46.054;13.614;2023-03-17T15:39:42;100918.97;;;14.12;47.19
35553;BME280;21656;46.054;13.614;2023-03-17T15:42:07;100921.50;;;14.03;46.56
35553;BME280;21656;46.054;13.614;2023-03-17T15:44:33;100928.25;;;13.88;45.98
35553;BME280;21656;46.054;13.614;2023-03-17T15:46:58;100926.19;;;13.80;46.28
35553;BME280;21656;46.054;13.614;2023-03-17T15:49:24;100930.88;;;13.78;46.86
35553;BME280;21656;46.054;13.614;2023-03-17T15:51:50;100923.16;;;13.74;47.47
35553;BME280;21656;46.054;13.614;2023-03-17T15:54:16;100922.22;;;13.63;47.53
35553;BME280;21656;46.054;13.614;2023-03-17T15:56:41;100929.22;;;13.66;48.01
35553;BME280;21656;46.054;13.614;2023-03-17T15:59:07;100923.63;;;13.58;48.31
35553;BME280;21656;46.054;13.614;2023-03-17T16:01:33;100926.13;;;13.50;47.76
35553;BME280;21656;46.054;13.614;2023-03-17T16:03:58;100930.78;;;13.48;48.08
35553;BME280;21656;46.054;13.614;2023-03-17T16:06:23;100932.56;;;13.37;47.80
35553;BME280;21656;46.054;13.614;2023-03-17T16:08:49;100934.78;;;13.32;48.68
35553;BME280;21656;46.054;13.614;2023-03-17T16:11:15;100924.44;;;13.37;48.93
35553;BME280;21656;46.054;13.614;2023-03-17T16:13:42;100931.94;;;13.34;49.49
35553;BME280;21656;46.054;13.614;2023-03-17T16:16:11;100923.97;;;13.32;49.49
35553;BME280;21656;46.054;13.614;2023-03-17T16:18:39;100931.13;;;13.22;48.21
35553;BME280;21656;46.054;13.614;2023-03-17T16:21:06;100929.16;;;13.13;48.33
35553;BME280;21656;46.054;13.614;2023-03-17T16:23:32;100925.25;;;13.06;49.76
35553;BME280;21656;46.054;13.614;2023-03-17T16:28:57;100927.63;;;12.99;49.44
35553;BME280;21656;46.054;13.614;2023-03-17T16:31:26;100924.19;;;12.97;49.74
35553;BME280;21656;46.054;13.614;2023-03-17T16:33:55;100924.66;;;12.91;51.44
35553;BME280;21656;46.054;13.614;2023-03-17T16:36:21;100928.00;;;12.83;51.71
35553;BME280;21656;46.054;13.614;2023-03-17T16:38:47;100938.00;;;12.71;53.29
35553;BME280;21656;46.054;13.614;2023-03-17T16:41:23;100928.81;;;12.51;54.53
35553;BME280;21656;46.054;13.614;2023-03-17T16:43:50;100928.56;;;12.43;55.20
35553;BME280;21656;46.054;13.614;2023-03-17T16:46:15;100936.53;;;12.33;56.27
35553;BME280;21656;46.054;13.614;2023-03-17T16:48:41;100927.06;;;12.28;57.75
35553;BME280;21656;46.054;13.614;2023-03-17T16:51:06;100927.19;;;12.15;58.03
35553;BME280;21656;46.054;13.614;2023-03-17T16:53:32;100930.25;;;11.99;60.12
35553;BME280;21656;46.054;13.614;2023-03-17T16:55:57;100934.00;;;11.85;61.37
35553;BME280;21656;46.054;13.614;2023-03-17T16:58:26;100936.53;;;11.76;61.90
35553;BME280;21656;46.054;13.614;2023-03-17T17:00:55;100931.34;;;11.61;63.02
35553;BME280;21656;46.054;13.614;2023-03-17T17:03:21;100926.63;;;11.41;66.08
35553;BME280;21656;46.054;13.614;2023-03-17T17:05:46;100939.09;;;11.31;67.53
35553;BME280;21656;46.054;13.614;2023-03-17T17:08:11;100931.06;;;11.18;68.96
35553;BME280;21656;46.054;13.614;2023-03-17T17:10:37;100936.50;;;11.05;70.87
35553;BME280;21656;46.054;13.614;2023-03-17T17:13:03;100937.84;;;10.99;72.03
35553;BME280;21656;46.054;13.614;2023-03-17T17:15:29;100930.75;;;10.85;73.78
35553;BME280;21656;46.054;13.614;2023-03-17T17:17:58;100935.75;;;10.79;74.87
35553;BME280;21656;46.054;13.614;2023-03-17T17:22:52;100936.44;;;10.57;78.30
35553;BME280;21656;46.054;13.614;2023-03-17T17:25:17;100935.47;;;10.45;79.47
35553;BME280;21656;46.054;13.614;2023-03-17T17:27:44;100944.78;;;10.28;80.43
35553;BME280;21656;46.054;13.614;2023-03-17T17:30:11;100940.63;;;10.23;79.62
35553;BME280;21656;46.054;13.614;2023-03-17T17:32:37;100943.25;;;10.11;81.38
35553;BME280;21656;46.054;13.614;2023-03-17T17:35:02;100940.66;;;10.10;83.98
35553;BME280;21656;46.054;13.614;2023-03-17T17:37:27;100941.09;;;9.91;85.59
35553;BME280;21656;46.054;13.614;2023-03-17T17:39:53;100945.16;;;9.84;86.76
35553;BME280;21656;46.054;13.614;2023-03-17T17:42:18;100947.63;;;9.74;86.65
35553;BME280;21656;46.054;13.614;2023-03-17T17:44:44;100937.19;;;9.82;86.81
35553;BME280;21656;46.054;13.614;2023-03-17T17:47:10;100944.59;;;9.66;86.93
35553;BME280;21656;46.054;13.614;2023-03-17T17:49:35;100947.72;;;9.60;88.60
35553;BME280;21656;46.054;13.614;2023-03-17T17:52:00;100946.94;;;9.45;89.72
35553;BME280;21656;46.054;13.614;2023-03-17T17:54:26;100948.06;;;9.28;93.19
35553;BME280;21656;46.054;13.614;2023-03-17T17:56:51;100956.16;;;9.14;96.70
35553;BME280;21656;46.054;13.614;2023-03-17T17:59:16;100954.75;;;9.08;98.94
35553;BME280;21656;46.054;13.614;2023-03-17T18:01:41;100962.47;;;9.00;98.90
35553;BME280;21656;46.054;13.614;2023-03-17T18:04:07;100960.25;;;9.06;98.28
35553;BME280;21656;46.054;13.614;2023-03-17T18:06:33;100956.88;;;9.03;99.50
35553;BME280;21656;46.054;13.614;2023-03-17T18:08:59;100960.97;;;9.08;98.87
35553;BME280;21656;46.054;13.614;2023-03-17T18:11:24;100960.00;;;8.97;99.44
35553;BME280;21656;46.054;13.614;2023-03-17T18:13:50;100950.59;;;8.89;100.00
35553;BME280;21656;46.054;13.614;2023-03-17T18:16:16;100959.16;;;8.82;100.00
35553;BME280;21656;46.054;13.614;2023-03-17T18:18:41;100954.56;;;8.70;100.00
35553;BME280;21656;46.054;13.614;2023-03-17T18:21:09;100959.78;;;8.44;100.00
35553;BME280;21656;46.054;13.614;2023-03-17T18:23:35;100956.97;;;8.45;100.00
35553;BME280;21656;46.054;13.614;2023-03-17T18:26:01;100954.50;;;8.42;100.00
35553;BME280;21656;46.054;13.614;2023-03-17T18:28:26;100954.94;;;8.35;100.00
35553;BME280;21656;46.054;13.614;2023-03-17T18:30:52;100960.13;;;8.23;100.00
35553;BME280;21656;46.054;13.614;2023-03-17T18:33:18;100958.97;;;8.13;100.00
35553;BME280;21656;46.054;13.614;2023-03-17T18:35:45;100958.22;;;8.11;100.00
35553;BME280;21656;46.054;13.614;2023-03-17T18:38:11;100958.19;;;7.97;100.00
35553;BME280;21656;46.054;13.614;2023-03-17T18:40:36;100958.38;;;7.94;100.00
35553;BME280;21656;46.054;13.614;2023-03-17T18:43:01;100966.22;;;7.97;100.00
35553;BME280;21656;46.054;13.614;2023-03-17T18:45:27;100961.88;;;8.10;100.00
35553;BME280;21656;46.054;13.614;2023-03-17T18:47:53;100954.25;;;8.02;100.00
35553;BME280;21656;46.054;13.614;2023-03-17T18:50:18;100950.06;;;7.98;100.00
35553;BME280;21656;46.054;13.614;2023-03-17T18:52:47;100953.59;;;7.99;100.00
35553;BME280;21656;46.054;13.614;2023-03-17T18:55:12;100953.22;;;7.91;100.00
35553;BME280;21656;46.054;13.614;2023-03-17T18:57:38;100951.66;;;7.87;100.00
35553;BME280;21656;46.054;13.614;2023-03-17T19:00:05;100949.38;;;7.80;100.00
35553;BME280;21656;46.054;13.614;2023-03-17T19:02:30;100951.66;;;7.72;100.00
35553;BME280;21656;46.054;13.614;2023-03-17T19:04:56;100962.91;;;7.63;100.00
35553;BME280;21656;46.054;13.614;2023-03-17T19:07:21;100943.75;;;7.55;100.00
35553;BME280;21656;46.054;13.614;2023-03-17T19:09:46;100940.25;;;7.38;100.00
35553;BME280;21656;46.054;13.614;2023-03-17T19:12:12;100940.75;;;7.45;100.00
35553;BME280;21656;46.054;13.614;2023-03-17T19:14:37;100941.88;;;7.41;100.00
35553;BME280;21656;46.054;13.614;2023-03-17T19:17:04;100945.59;;;7.38;100.00
35553;BME280;21656;46.054;13.614;2023-03-17T19:19:30;100945.66;;;7.23;100.00
35553;BME280;21656;46.054;13.614;2023-03-17T19:21:56;100941.84;;;7.11;100.00
35553;BME280;21656;46.054;13.614;2023-03-17T19:24:21;100946.03;;;7.16;100.00
35553;BME280;21656;46.054;13.614;2023-03-17T19:26:46;100943.69;;;7.10;100.00
35553;BME280;21656;46.054;13.614;2023-03-17T19:29:11;100941.03;;;6.94;100.00
35553;BME280;21656;46.054;13.614;2023-03-17T19:31:37;100941.34;;;6.88;100.00
35553;BME280;21656;46.054;13.614;2023-03-17T19:34:06;100951.31;;;6.86;100.00
35553;BME280;21656;46.054;13.614;2023-03-17T19:36:35;100953.53;;;6.78;100.00
35553;BME280;21656;46.054;13.614;2023-03-17T19:39:01;100954.31;;;6.80;100.00
35553;BME280;21656;46.054;13.614;2023-03-17T19:41:27;100954.25;;;6.82;100.00
35553;BME280;21656;46.054;13.614;2023-03-17T19:43:56;100957.84;;;6.65;100.00
35553;BME280;21656;46.054;13.614;2023-03-17T19:46:21;100949.03;;;6.63;100.00
35553;BME280;21656;46.054;13.614;2023-03-17T19:48:46;100951.97;;;6.58;100.00
35553;BME280;21656;46.054;13.614;2023-03-17T19:51:12;100952.50;;;6.65;100.00
35553;BME280;21656;46.054;13.614;2023-03-17T19:53:38;100949.50;;;6.71;100.00
35553;BME280;21656;46.054;13.614;2023-03-17T19:56:04;100953.38;;;6.65;100.00
35553;BME280;21656;46.054;13.614;2023-03-17T19:58:29;100959.75;;;6.63;100.00
35553;BME280;21656;46.054;13.614;2023-03-17T20:00:54;100955.59;;;6.57;100.00
35553;BME280;21656;46.054;13.614;2023-03-17T20:03:20;100962.16;;;6.51;100.00
35553;BME280;21656;46.054;13.614;2023-03-17T20:05:45;100954.63;;;6.42;100.00
35553;BME280;21656;46.054;13.614;2023-03-17T20:08:11;100953.53;;;6.46;100.00
35553;BME280;21656;46.054;13.614;2023-03-17T20:10:37;100949.28;;;6.42;100.00
35553;BME280;21656;46.054;13.614;2023-03-17T20:13:02;100958.59;;;6.35;100.00
35553;BME280;21656;46.054;13.614;2023-03-17T20:15:27;100954.81;;;6.39;100.00
35553;BME280;21656;46.054;13.614;2023-03-17T20:17:53;100959.72;;;6.31;100.00
35553;BME280;21656;46.054;13.614;2023-03-17T20:20:18;100953.34;;;6.34;100.00
35553;BME280;21656;46.054;13.614;2023-03-17T20:22:43;100949.19;;;6.28;100.00
35553;BME280;21656;46.054;13.614;2023-03-17T20:25:10;100958.00;;;6.13;100.00
35553;BME280;21656;46.054;13.614;2023-03-17T20:27:36;100951.38;;;6.04;100.00
35553;BME280;21656;46.054;13.614;2023-03-17T20:30:05;100948.25;;;5.96;100.00
35553;BME280;21656;46.054;13.614;2023-03-17T20:32:32;100955.50;;;5.92;100.00
35553;BME280;21656;46.054;13.614;2023-03-17T20:34:58;100956.16;;;5.97;100.00
35553;BME280;21656;46.054;13.614;2023-03-17T20:37:24;100954.09;;;6.02;100.00
35553;BME280;21656;46.054;13.614;2023-03-17T20:39:50;100954.81;;;6.06;100.00
35553;BME280;21656;46.054;13.614;2023-03-17T20:42:17;100951.59;;;5.99;100.00
35553;BME280;21656;46.054;13.614;2023-03-17T20:44:43;100948.44;;;6.08;100.00